Česky Dansk Deutsch English Español Suomi Français Magyar Italiano Nederlands norsk Polski Português svenska Türkçe

 

Het Weer

Eilat (Israel)

14:50, 19 augustus 2016 (GMT)

NWNNE
WE
SWSSE
Home            
Eilat Aqaba Airport Taba Ovda Ma'An Sharm El Sheikhintl Beer-Sheva El Arish Tabuk Queen Alia Airport Jerusalem Airport El Tor Ben-Gurion International Airport Tel Aviv / Sde-Dov Airport Amman Airport Hurguada Guriat Port Said Mafraq Irbid Cairo Airport H-5'Safawi Sde-Haifa Haifa

Om een weerknop op uw website of weblog te plaatsen, copieer onderstaande code en plak die in uw pagina. In het eerste vakje staat HTML-code, in het tweede vakje UBB-code.


Add to Google

Details

Wind speed:4 bf, 13 kn, 6.7 m/s, 15.0 miles/h, 24.1 km/h
Wind direction:NNE, 030°
Visibility:Greater than 10000 m, 10 km, 32800 ft, 6.2 miles
Clouds:CAVOC
Temperature:40°C, 104°F
Gefühlte Temperatur:39°C, 102°F
Dew-point:11°C, 52°F
Atmospheric pressure:1003 hPa, 752.3 mmHg, 29.62 inHg, 0.990 atm
Relative humidity:17.8 %
METAR:LLET 191450Z 03013KT CAVOK 40/11 Q1003

Snelkoppelingen

Actuele weersinformatie van de hele wereld. Voeg locaties toe met het plus (+) symbool. Deze snelkoppelingen kunnen worden toegevoegd aan Google.

Lid van de Technetium groep

website free tracking
StatCounter NetStat W3C Validator

17-12-2017 04:48:24
astro.technetium.be money.technetium.be phote.technetium.be tafeltennistafel.technetium.be www.ligfiets.net